createdAt,value
2022-11-21T00:00:07.269Z,4.32
2022-11-21T00:01:07.257Z,4.36
2022-11-21T00:02:07.284Z,4.30
2022-11-21T00:03:07.205Z,4.37
2022-11-21T00:04:07.211Z,4.23
2022-11-21T00:05:07.225Z,4.42
2022-11-21T00:06:07.203Z,4.30
2022-11-21T00:07:07.199Z,4.40
2022-11-21T00:08:07.147Z,4.34
2022-11-21T00:09:07.160Z,4.36
2022-11-21T00:10:07.148Z,4.40
2022-11-21T00:11:07.159Z,4.27
2022-11-21T00:12:07.146Z,4.40
2022-11-21T00:13:07.095Z,4.34
2022-11-21T00:14:07.079Z,4.37
2022-11-21T00:15:07.097Z,4.36
2022-11-21T00:16:07.099Z,4.32
2022-11-21T00:17:07.056Z,4.33
2022-11-21T00:18:07.064Z,4.40
2022-11-21T00:19:07.073Z,4.37
2022-11-21T00:20:07.012Z,4.33
2022-11-21T00:21:07.052Z,4.33
2022-11-21T00:22:07.000Z,4.34
2022-11-21T00:23:06.995Z,4.33
2022-11-21T00:24:07.029Z,4.32
2022-11-21T00:25:07.009Z,4.44
2022-11-21T00:26:06.966Z,4.44
2022-11-21T00:27:06.966Z,4.47
2022-11-21T00:28:06.972Z,4.47
2022-11-21T00:29:06.950Z,4.33
2022-11-21T00:30:06.900Z,4.48
2022-11-21T00:31:06.894Z,4.36
2022-11-21T00:32:06.899Z,4.45
2022-11-21T00:33:06.873Z,4.40
2022-11-21T00:34:06.878Z,4.50
2022-11-21T00:35:06.901Z,4.47
2022-11-21T00:36:06.834Z,4.41
2022-11-21T00:37:06.824Z,4.51
2022-11-21T00:38:06.832Z,4.45
2022-11-21T00:39:06.832Z,4.36
2022-11-21T00:40:06.814Z,4.41
2022-11-21T00:41:06.826Z,4.41
2022-11-21T00:42:06.766Z,4.48
2022-11-21T00:43:06.763Z,4.48
2022-11-21T00:44:06.781Z,4.44
2022-11-21T00:45:06.773Z,4.41
2022-11-21T00:46:06.752Z,4.44
2022-11-21T00:47:06.761Z,4.45
2022-11-21T00:48:06.712Z,4.48
2022-11-21T00:49:06.693Z,4.44
2022-11-21T00:50:06.786Z,4.50
2022-11-21T00:51:06.681Z,4.42
2022-11-21T00:52:06.688Z,4.42
2022-11-21T00:53:06.704Z,4.47
2022-11-21T00:54:06.635Z,4.52
2022-11-21T00:55:06.648Z,4.54
2022-11-21T00:56:06.624Z,4.50
2022-11-21T00:57:06.620Z,4.48
2022-11-21T00:58:06.590Z,4.51
2022-11-21T00:59:06.638Z,4.47
2022-11-21T01:00:06.571Z,4.51
2022-11-21T01:01:06.673Z,4.54
2022-11-21T01:02:06.553Z,4.55
2022-11-21T01:03:06.559Z,4.58
2022-11-21T01:04:06.573Z,4.52
2022-11-21T01:05:06.513Z,4.54
2022-11-21T01:06:06.582Z,4.55
2022-11-21T01:07:06.541Z,4.54
2022-11-21T01:08:06.492Z,4.55
2022-11-21T01:09:06.522Z,4.58
2022-11-21T01:10:06.456Z,4.59
2022-11-21T01:11:06.444Z,4.55
2022-11-21T01:12:06.455Z,4.55
2022-11-21T01:13:06.439Z,4.60
2022-11-21T01:14:06.427Z,4.65
2022-11-21T01:15:06.432Z,4.65
2022-11-21T01:16:06.454Z,4.60
2022-11-21T01:17:06.391Z,4.62
2022-11-21T01:18:06.386Z,4.58
2022-11-21T01:19:06.423Z,4.63
2022-11-21T01:20:06.369Z,4.59
2022-11-21T01:21:06.332Z,4.59
2022-11-21T01:22:06.346Z,4.69
2022-11-21T01:23:06.307Z,4.69
2022-11-21T01:24:06.296Z,4.67
2022-11-21T01:25:06.300Z,4.70
2022-11-21T01:26:06.302Z,4.62
2022-11-21T01:27:06.312Z,4.60
2022-11-21T01:28:06.252Z,4.59
2022-11-21T01:29:06.266Z,4.59
2022-11-21T01:30:06.240Z,4.70
2022-11-21T01:31:06.238Z,4.66
2022-11-21T01:32:06.239Z,4.65
2022-11-21T01:33:06.197Z,4.63
2022-11-21T01:34:06.186Z,4.67
2022-11-21T01:35:06.876Z,4.54
2022-11-21T01:36:06.181Z,4.58
2022-11-21T01:37:06.173Z,4.54
2022-11-21T01:38:06.144Z,4.50
2022-11-21T01:39:06.135Z,4.47
2022-11-21T01:40:06.122Z,4.42
2022-11-21T01:41:06.126Z,4.44
2022-11-21T01:42:06.107Z,4.40
2022-11-21T01:43:06.111Z,4.41
2022-11-21T01:44:06.077Z,4.47
2022-11-21T01:45:06.114Z,4.50
2022-11-21T01:46:06.052Z,4.41
2022-11-21T01:47:06.037Z,4.45
2022-11-21T01:48:06.047Z,4.41
2022-11-21T01:49:06.049Z,4.45
2022-11-21T01:50:09.251Z,4.41
2022-11-21T01:51:07.030Z,4.48
2022-11-21T01:52:06.014Z,4.44
2022-11-21T01:53:05.973Z,4.40
2022-11-21T01:54:05.985Z,4.33
2022-11-21T01:55:05.994Z,4.47
2022-11-21T01:56:05.936Z,4.45
2022-11-21T01:57:05.925Z,4.45
2022-11-21T01:58:05.962Z,4.34
2022-11-21T01:59:05.918Z,4.48
2022-11-21T02:00:05.917Z,4.37
2022-11-21T02:01:06.030Z,4.37
2022-11-21T02:02:05.868Z,4.33
2022-11-21T02:03:05.866Z,4.42
2022-11-21T02:04:05.908Z,4.36
2022-11-21T02:05:05.850Z,4.42
2022-11-21T02:06:05.822Z,4.33
2022-11-21T02:07:05.900Z,4.33
2022-11-21T02:08:05.809Z,4.32
2022-11-21T02:09:05.794Z,4.37
2022-11-21T02:10:05.779Z,4.36
2022-11-21T02:11:05.785Z,4.34
2022-11-21T02:12:05.800Z,4.37
2022-11-21T02:13:05.786Z,4.41
2022-11-21T02:14:05.733Z,4.37
2022-11-21T02:15:05.725Z,4.32
2022-11-21T02:16:05.717Z,4.33
2022-11-21T02:17:05.745Z,4.37
2022-11-21T02:18:05.735Z,4.32
2022-11-21T02:19:05.678Z,4.33
2022-11-21T02:20:05.666Z,4.36
2022-11-21T02:21:05.656Z,4.45
2022-11-21T02:22:05.654Z,4.47
2022-11-21T02:23:05.647Z,4.37
2022-11-21T02:24:05.675Z,4.44
2022-11-21T02:25:05.620Z,4.40
2022-11-21T02:26:05.602Z,4.44
2022-11-21T02:27:05.597Z,4.44
2022-11-21T02:28:05.592Z,4.45
2022-11-21T02:29:05.591Z,4.45
2022-11-21T02:30:05.628Z,4.44
2022-11-21T02:31:05.543Z,4.45
2022-11-21T02:32:05.558Z,4.42
2022-11-21T02:33:05.568Z,4.47
2022-11-21T02:34:05.527Z,4.42
2022-11-21T02:35:05.553Z,4.55
2022-11-21T02:36:05.494Z,4.45
2022-11-21T02:37:05.478Z,4.41
2022-11-21T02:38:05.500Z,4.44
2022-11-21T02:39:05.466Z,4.40
2022-11-21T02:40:05.455Z,4.42
2022-11-21T02:41:05.486Z,4.45
2022-11-21T02:42:05.418Z,4.45
2022-11-21T02:43:05.521Z,4.48
2022-11-21T02:44:05.407Z,4.51
2022-11-21T02:45:05.404Z,4.48
2022-11-21T02:46:05.429Z,4.47
2022-11-21T02:47:05.376Z,4.47
2022-11-21T02:48:05.354Z,4.45
2022-11-21T02:49:05.365Z,4.48
2022-11-21T02:50:05.340Z,4.40
2022-11-21T02:51:05.341Z,4.45
2022-11-21T02:52:05.334Z,4.50
2022-11-21T02:53:05.300Z,4.44
2022-11-21T02:54:05.292Z,4.41
2022-11-21T02:55:05.310Z,4.37
2022-11-21T02:56:05.296Z,4.37
2022-11-21T02:57:05.286Z,4.36
2022-11-21T02:58:05.799Z,4.40
2022-11-21T02:59:05.275Z,4.34
2022-11-21T03:00:05.218Z,4.37
2022-11-21T03:01:05.256Z,4.36
2022-11-21T03:02:05.224Z,4.40
2022-11-21T03:03:05.270Z,4.36
2022-11-21T03:04:05.172Z,4.37
2022-11-21T03:05:05.184Z,4.30
2022-11-21T03:06:05.150Z,4.36
2022-11-21T03:07:05.169Z,4.40
2022-11-21T03:08:05.240Z,4.33
2022-11-21T03:09:05.158Z,4.34
2022-11-21T03:10:05.118Z,4.37
2022-11-21T03:11:05.096Z,4.29
2022-11-21T03:12:05.086Z,4.47
2022-11-21T03:13:05.105Z,4.34
2022-11-21T03:14:05.066Z,4.45
2022-11-21T03:15:05.049Z,4.40
2022-11-21T03:16:05.036Z,4.33
2022-11-21T03:17:05.051Z,4.32
2022-11-21T03:18:05.057Z,4.42
2022-11-21T03:19:05.030Z,4.47
2022-11-21T03:20:05.026Z,4.32
2022-11-21T03:21:04.997Z,4.33
2022-11-21T03:22:04.968Z,4.37
2022-11-21T03:23:04.959Z,4.34
2022-11-21T03:24:05.028Z,4.34
2022-11-21T03:25:04.969Z,4.32
2022-11-21T03:26:04.946Z,4.36
2022-11-21T03:27:04.918Z,4.36
2022-11-21T03:28:04.913Z,4.33
2022-11-21T03:29:04.894Z,4.27
2022-11-21T03:30:04.891Z,4.33
2022-11-21T03:31:04.917Z,4.34
2022-11-21T03:32:04.859Z,4.32
2022-11-21T03:33:04.867Z,4.27
2022-11-21T03:34:04.849Z,4.32
2022-11-21T03:35:04.835Z,4.32
2022-11-21T03:36:04.827Z,4.34
2022-11-21T03:37:04.887Z,4.26
2022-11-21T03:38:04.789Z,4.30
2022-11-21T03:39:04.797Z,4.27
2022-11-21T03:40:04.768Z,4.29
2022-11-21T03:41:04.794Z,4.24
2022-11-21T03:42:04.766Z,4.33
2022-11-21T03:43:04.785Z,4.29
2022-11-21T03:44:04.733Z,4.29
2022-11-21T03:45:04.732Z,4.27
2022-11-21T03:46:04.739Z,4.24
2022-11-21T03:47:04.702Z,4.36
2022-11-21T03:48:04.810Z,4.27
2022-11-21T03:49:04.691Z,4.30
2022-11-21T03:50:05.345Z,4.34
2022-11-21T03:51:04.649Z,4.36
2022-11-21T03:52:04.669Z,4.27
2022-11-21T03:53:04.715Z,4.32
2022-11-21T03:54:04.643Z,4.34
2022-11-21T03:55:04.603Z,4.34
2022-11-21T03:56:04.590Z,4.30
2022-11-21T03:57:04.600Z,4.27
2022-11-21T03:58:04.575Z,4.33
2022-11-21T03:59:04.581Z,4.32
2022-11-21T04:00:04.559Z,4.32
2022-11-21T04:01:04.649Z,4.36
2022-11-21T04:02:04.520Z,4.34
2022-11-21T04:03:04.550Z,4.40
2022-11-21T04:04:04.518Z,4.40
2022-11-21T04:05:04.516Z,4.42
2022-11-21T04:06:04.494Z,4.47
2022-11-21T04:07:04.501Z,4.33
2022-11-21T04:08:04.455Z,4.47
2022-11-21T04:09:04.516Z,4.45
2022-11-21T04:10:04.443Z,4.48
2022-11-21T04:11:04.478Z,4.45
2022-11-21T04:12:07.636Z,4.45
2022-11-21T04:13:04.448Z,4.32
2022-11-21T04:14:04.388Z,4.47
2022-11-21T04:15:07.066Z,4.40
2022-11-21T04:16:05.384Z,4.40
2022-11-21T04:17:04.369Z,4.37
2022-11-21T04:18:04.387Z,4.50
2022-11-21T04:19:04.339Z,4.40
2022-11-21T04:20:04.342Z,4.44
2022-11-21T04:21:04.325Z,4.48
2022-11-21T04:22:04.351Z,4.50
2022-11-21T04:23:04.306Z,4.51
2022-11-21T04:24:04.311Z,4.45
2022-11-21T04:25:04.297Z,4.52
2022-11-21T04:26:04.274Z,4.55
2022-11-21T04:27:04.253Z,4.55
2022-11-21T04:28:04.260Z,4.58
2022-11-21T04:29:04.266Z,4.51
2022-11-21T04:30:04.223Z,4.54
2022-11-21T04:31:10.019Z,4.59
2022-11-21T04:32:05.209Z,4.62
2022-11-21T04:33:04.176Z,4.59
2022-11-21T04:34:04.215Z,4.54
2022-11-21T04:35:04.210Z,4.58
2022-11-21T04:36:04.157Z,4.58
2022-11-21T04:37:07.559Z,4.54
2022-11-21T04:38:05.180Z,4.66
2022-11-21T04:39:04.148Z,4.72
2022-11-21T04:40:04.128Z,4.59
2022-11-21T04:41:04.104Z,4.65
2022-11-21T04:42:04.089Z,4.62
2022-11-21T04:43:04.092Z,4.66
2022-11-21T04:44:04.076Z,4.69
2022-11-21T04:45:04.055Z,4.67
2022-11-21T04:46:04.086Z,4.73
2022-11-21T04:47:05.776Z,4.67
2022-11-21T04:48:04.060Z,4.69
2022-11-21T04:49:04.025Z,4.65
2022-11-21T04:50:04.000Z,4.69
2022-11-21T04:51:03.990Z,4.72
2022-11-21T04:52:03.962Z,4.69
2022-11-21T04:53:03.958Z,4.72
2022-11-21T04:54:03.956Z,4.77
2022-11-21T04:55:03.973Z,4.75
2022-11-21T04:56:03.921Z,4.72
2022-11-21T04:57:03.940Z,4.78
2022-11-21T04:58:04.000Z,4.59
2022-11-21T04:59:03.884Z,4.66
2022-11-21T05:00:03.876Z,4.60
2022-11-21T05:01:04.000Z,4.66
2022-11-21T05:02:03.858Z,4.66
2022-11-21T05:03:03.890Z,4.60
2022-11-21T05:04:03.860Z,4.58
2022-11-21T05:05:03.818Z,4.59
2022-11-21T05:06:03.835Z,4.62
2022-11-21T05:07:03.850Z,4.55
2022-11-21T05:08:03.802Z,4.63
2022-11-21T05:09:03.803Z,4.58
2022-11-21T05:10:03.771Z,4.42
2022-11-21T05:11:03.749Z,4.34
2022-11-21T05:12:03.773Z,4.40
2022-11-21T05:13:03.743Z,4.32
2022-11-21T05:14:03.735Z,4.33
2022-11-21T05:15:03.705Z,4.14
2022-11-21T05:16:03.760Z,4.09
2022-11-21T05:17:03.682Z,4.12
2022-11-21T05:18:03.688Z,4.05
2022-11-21T05:19:03.702Z,4.04
2022-11-21T05:20:03.677Z,4.05
2022-11-21T05:21:03.641Z,4.02
2022-11-21T05:22:03.630Z,3.98
2022-11-21T05:23:03.617Z,4.05
2022-11-21T05:24:03.645Z,3.97
2022-11-21T05:25:03.601Z,4.06
2022-11-21T05:26:03.601Z,3.96
2022-11-21T05:27:03.604Z,3.90
2022-11-21T05:28:03.723Z,3.93
2022-11-21T05:29:03.567Z,3.88
2022-11-21T05:30:03.560Z,3.91
2022-11-21T05:31:03.539Z,4.05
2022-11-21T05:32:03.560Z,3.90
2022-11-21T05:33:03.508Z,3.87
2022-11-21T05:34:03.520Z,3.91
2022-11-21T05:35:03.875Z,3.91
2022-11-21T05:36:03.499Z,3.88
2022-11-21T05:37:03.471Z,3.88
2022-11-21T05:38:03.497Z,3.84
2022-11-21T05:39:03.443Z,3.90
2022-11-21T05:40:03.429Z,3.90
2022-11-21T05:41:03.611Z,3.94
2022-11-21T05:42:03.547Z,3.90
2022-11-21T05:43:03.406Z,3.88
2022-11-21T05:44:03.488Z,3.90
2022-11-21T05:45:03.387Z,3.88
2022-11-21T05:46:03.380Z,3.91
2022-11-21T05:47:03.388Z,3.91
2022-11-21T05:48:03.351Z,3.91
2022-11-21T05:49:03.346Z,3.91
2022-11-21T05:50:03.314Z,3.84
2022-11-21T05:51:03.333Z,3.88
2022-11-21T05:52:03.304Z,3.86
2022-11-21T05:53:03.312Z,3.90
2022-11-21T05:54:03.332Z,3.90
2022-11-21T05:55:03.261Z,3.98
2022-11-21T05:56:03.260Z,3.96
2022-11-21T05:57:03.347Z,3.96
2022-11-21T05:58:03.242Z,3.98
2022-11-21T05:59:03.229Z,4.02
2022-11-21T06:00:03.228Z,4.08
2022-11-21T06:01:03.226Z,4.04
2022-11-21T06:02:03.195Z,3.97
2022-11-21T06:03:03.209Z,4.02
2022-11-21T06:04:03.178Z,4.11
2022-11-21T06:05:03.417Z,4.11
2022-11-21T06:06:03.149Z,4.11
2022-11-21T06:07:03.229Z,4.23
2022-11-21T06:08:03.271Z,4.18
2022-11-21T06:09:03.104Z,4.18
2022-11-21T06:10:03.090Z,4.22
2022-11-21T06:11:03.119Z,4.16
2022-11-21T06:12:03.096Z,4.16
2022-11-21T06:13:03.101Z,4.16
2022-11-21T06:14:03.050Z,4.18
2022-11-21T06:15:03.068Z,4.22
2022-11-21T06:16:03.055Z,4.18
2022-11-21T06:17:03.044Z,4.20
2022-11-21T06:18:03.004Z,4.15
2022-11-21T06:19:02.987Z,4.22
2022-11-21T06:20:03.000Z,4.22
2022-11-21T06:21:03.001Z,4.20
2022-11-21T06:22:02.961Z,4.18
2022-11-21T06:23:02.961Z,4.18
2022-11-21T06:24:02.997Z,4.20
2022-11-21T06:25:02.936Z,4.11
2022-11-21T06:26:02.930Z,4.05
2022-11-21T06:27:11.428Z,4.08
2022-11-21T06:28:02.891Z,4.08
2022-11-21T06:29:02.875Z,4.12
2022-11-21T06:30:02.891Z,4.18
2022-11-21T06:31:02.880Z,4.11
2022-11-21T06:32:02.862Z,4.26
2022-11-21T06:33:02.967Z,4.27
2022-11-21T06:34:02.823Z,4.20
2022-11-21T06:35:02.809Z,4.24
2022-11-21T06:36:02.842Z,4.18
2022-11-21T06:37:02.827Z,4.23
2022-11-21T06:38:02.799Z,4.34
2022-11-21T06:39:02.813Z,4.26
2022-11-21T06:40:02.765Z,4.32
2022-11-21T06:41:02.741Z,4.32
2022-11-21T06:42:02.939Z,4.30
2022-11-21T06:43:02.730Z,4.34
2022-11-21T06:44:02.753Z,4.32
2022-11-21T06:45:02.697Z,4.30
2022-11-21T06:46:02.687Z,4.24
2022-11-21T06:47:02.904Z,4.23
2022-11-21T06:48:02.699Z,4.22
2022-11-21T06:49:02.690Z,4.09
2022-11-21T06:50:02.654Z,4.22
2022-11-21T06:51:02.629Z,4.23
2022-11-21T06:52:02.681Z,4.16
2022-11-21T06:53:02.627Z,4.18
2022-11-21T06:54:02.638Z,4.30
2022-11-21T06:55:02.609Z,4.29
2022-11-21T06:56:02.606Z,4.18
2022-11-21T06:57:02.609Z,4.20
2022-11-21T06:58:02.578Z,4.23
2022-11-21T06:59:02.649Z,4.26
2022-11-21T07:00:02.542Z,4.26
2022-11-21T07:01:02.606Z,4.18
2022-11-21T07:02:02.542Z,4.32
2022-11-21T07:03:03.435Z,4.26
2022-11-21T07:04:02.510Z,4.16
2022-11-21T07:05:02.552Z,4.16
2022-11-21T07:06:02.479Z,4.22
2022-11-21T07:07:02.504Z,4.20
2022-11-21T07:08:02.441Z,4.14
2022-11-21T07:09:31.658Z,4.14
2022-11-21T07:10:03.429Z,4.16
2022-11-21T07:11:26.040Z,4.15
2022-11-21T07:12:03.398Z,4.16
2022-11-21T07:13:02.384Z,4.15
2022-11-21T07:14:07.763Z,4.29
2022-11-21T07:15:03.397Z,4.27
2022-11-21T07:16:02.372Z,4.34
2022-11-21T07:17:02.375Z,4.36
2022-11-21T07:18:02.357Z,4.36
2022-11-21T07:19:02.364Z,4.32
2022-11-21T07:20:02.323Z,4.36
2022-11-21T07:21:02.323Z,4.40
2022-11-21T07:22:02.307Z,4.45
2022-11-21T07:23:02.296Z,4.37
2022-11-21T07:24:02.316Z,4.41
2022-11-21T07:25:02.311Z,4.34
2022-11-21T07:26:02.250Z,4.47
2022-11-21T07:27:02.256Z,4.45
2022-11-21T07:28:02.246Z,4.41
2022-11-21T07:29:02.252Z,4.40
2022-11-21T07:30:02.270Z,4.45
2022-11-21T07:31:02.183Z,4.42
2022-11-21T07:32:02.194Z,4.50
2022-11-21T07:33:02.183Z,4.47
2022-11-21T07:34:02.160Z,4.40
2022-11-21T07:35:02.173Z,4.47
2022-11-21T07:36:02.183Z,4.40
2022-11-21T07:37:05.169Z,4.34
2022-11-21T07:38:02.110Z,4.42
2022-11-21T07:39:02.132Z,4.47
2022-11-21T07:40:02.100Z,4.54
2022-11-21T07:41:02.106Z,4.54
2022-11-21T07:42:02.131Z,4.54
2022-11-21T07:43:05.404Z,4.54
2022-11-21T07:44:03.086Z,4.55
2022-11-21T07:45:02.047Z,4.54
2022-11-21T07:46:02.040Z,4.51
2022-11-21T07:47:02.044Z,4.47
2022-11-21T07:48:02.041Z,4.52
2022-11-21T07:49:03.598Z,4.54
2022-11-21T07:50:01.996Z,4.52
2022-11-21T07:51:01.969Z,4.47
2022-11-21T07:52:01.976Z,4.50
2022-11-21T07:53:01.975Z,4.47
2022-11-21T07:54:01.993Z,4.55
2022-11-21T07:55:01.937Z,4.55
2022-11-21T07:56:01.928Z,4.55
2022-11-21T07:57:01.917Z,4.63
2022-11-21T07:58:01.917Z,4.67
2022-11-21T07:59:01.870Z,4.69
2022-11-21T08:00:01.951Z,4.70
2022-11-21T08:01:01.877Z,4.75
2022-11-21T08:02:01.889Z,4.84
2022-11-21T08:03:01.850Z,4.75
2022-11-21T08:04:01.866Z,4.77
2022-11-21T08:05:01.808Z,4.77
2022-11-21T08:06:01.816Z,4.88
2022-11-21T08:07:01.835Z,4.84
2022-11-21T08:08:01.780Z,4.77
2022-11-21T08:09:01.828Z,4.78
2022-11-21T08:10:01.781Z,4.85
2022-11-21T08:11:01.736Z,4.77
2022-11-21T08:12:01.751Z,4.89
2022-11-21T08:13:01.735Z,4.89
2022-11-21T08:14:01.751Z,4.94
2022-11-21T08:15:01.725Z,4.88
2022-11-21T08:16:01.682Z,4.91
2022-11-21T08:17:01.670Z,4.99
2022-11-21T08:18:02.431Z,5.04
2022-11-21T08:19:01.684Z,5.03
2022-11-21T08:20:01.666Z,5.10
2022-11-21T08:21:01.665Z,5.03
2022-11-21T08:22:01.616Z,5.04
2022-11-21T08:23:01.602Z,5.12
2022-11-21T08:24:01.682Z,5.07
2022-11-21T08:25:01.606Z,5.09
2022-11-21T08:26:01.601Z,5.00
2022-11-21T08:27:01.561Z,5.03
2022-11-21T08:28:01.548Z,4.99
2022-11-21T08:29:01.538Z,4.88
2022-11-21T08:30:01.933Z,4.96
2022-11-21T08:31:01.565Z,4.96
2022-11-21T08:32:01.532Z,4.92
2022-11-21T08:33:01.497Z,5.04
2022-11-21T08:34:01.484Z,5.04
2022-11-21T08:35:01.469Z,5.07
2022-11-21T08:36:01.493Z,5.10
2022-11-21T08:37:01.557Z,5.12
2022-11-21T08:38:01.482Z,5.12
2022-11-21T08:39:01.425Z,5.10
2022-11-21T08:40:01.413Z,5.10
2022-11-21T08:41:01.510Z,5.15
2022-11-21T08:42:01.401Z,5.21
2022-11-21T08:43:01.429Z,5.21
2022-11-21T08:44:01.403Z,5.22
2022-11-21T08:45:01.359Z,5.22
2022-11-21T08:46:01.344Z,5.31
2022-11-21T08:47:01.365Z,5.33
2022-11-21T08:48:01.346Z,5.43
2022-11-21T08:49:01.343Z,5.38
2022-11-21T08:50:07.409Z,5.43
2022-11-21T08:51:02.306Z,5.45
2022-11-21T08:52:01.316Z,5.51
2022-11-21T08:53:01.308Z,5.56
2022-11-21T08:54:01.277Z,5.64
2022-11-21T08:55:01.284Z,5.74
2022-11-21T08:56:04.148Z,5.81
2022-11-21T08:57:01.247Z,5.79
2022-11-21T08:58:01.233Z,5.65
2022-11-21T08:59:01.219Z,5.85
2022-11-21T09:00:01.215Z,5.78
2022-11-21T09:01:01.219Z,5.91
2022-11-21T09:02:01.312Z,5.85
2022-11-21T09:03:01.156Z,5.82
2022-11-21T09:04:01.165Z,5.93
2022-11-21T09:05:01.147Z,5.91
2022-11-21T09:06:01.152Z,5.86
2022-11-21T09:07:01.163Z,5.91
2022-11-21T09:08:01.112Z,5.91
2022-11-21T09:09:01.099Z,5.91
2022-11-21T09:10:01.133Z,5.86
2022-11-21T09:11:01.093Z,5.91
2022-11-21T09:12:01.085Z,5.94
2022-11-21T09:13:01.077Z,5.94
2022-11-21T09:14:01.050Z,5.93
2022-11-21T09:15:01.027Z,6.04
2022-11-21T09:16:01.048Z,5.97
2022-11-21T09:17:02.447Z,5.97
2022-11-21T09:18:00.986Z,6.03
2022-11-21T09:19:00.977Z,6.06
2022-11-21T09:20:01.012Z,6.12
2022-11-21T09:21:00.985Z,6.19
2022-11-21T09:22:00.960Z,6.11
2022-11-21T09:23:00.967Z,6.17
2022-11-21T09:24:00.919Z,6.22
2022-11-21T09:25:00.912Z,6.19
2022-11-21T09:26:00.990Z,6.18
2022-11-21T09:27:00.912Z,6.27
2022-11-21T09:28:00.897Z,6.15
2022-11-21T09:29:00.891Z,6.27
2022-11-21T09:30:00.853Z,6.30
2022-11-21T09:31:00.858Z,6.30
2022-11-21T09:32:00.871Z,6.37
2022-11-21T09:33:00.828Z,6.40
2022-11-21T09:34:00.838Z,6.36
2022-11-21T09:35:00.827Z,6.46
2022-11-21T09:36:00.785Z,6.52
2022-11-21T09:37:00.775Z,6.40
2022-11-21T09:38:00.792Z,6.37
2022-11-21T09:39:00.792Z,6.34
2022-11-21T09:40:00.788Z,6.22
2022-11-21T09:41:00.732Z,6.28
2022-11-21T09:42:00.718Z,6.22
2022-11-21T09:43:00.729Z,6.27
2022-11-21T09:44:00.753Z,6.27
2022-11-21T09:45:00.732Z,6.18
2022-11-21T09:46:00.705Z,6.34
2022-11-21T09:47:00.663Z,6.36
2022-11-21T09:48:00.659Z,6.25
2022-11-21T09:49:00.652Z,6.25
2022-11-21T09:50:00.654Z,6.30
2022-11-21T09:51:00.643Z,6.27
2022-11-21T09:52:00.609Z,6.28
2022-11-21T09:53:00.614Z,6.18
2022-11-21T09:54:00.584Z,6.15
2022-11-21T09:55:00.587Z,6.12
2022-11-21T09:56:00.598Z,6.22
2022-11-21T09:57:00.588Z,6.19
2022-11-21T09:58:00.538Z,6.19
2022-11-21T09:59:00.537Z,6.18
2022-11-21T10:00:00.537Z,6.30
2022-11-21T10:01:00.608Z,6.30
2022-11-21T10:02:00.526Z,6.34
2022-11-21T10:03:00.520Z,6.40
2022-11-21T10:04:00.470Z,6.43
2022-11-21T10:05:00.463Z,6.49
2022-11-21T10:06:00.453Z,6.54
2022-11-21T10:07:00.555Z,6.49
2022-11-21T10:08:00.465Z,6.54
2022-11-21T10:09:00.420Z,6.61
2022-11-21T10:10:00.406Z,6.62
2022-11-21T10:11:04.451Z,6.62
2022-11-21T10:12:01.404Z,6.71
2022-11-21T10:13:00.390Z,6.70
2022-11-21T10:14:00.402Z,6.73
2022-11-21T10:15:00.348Z,6.74
2022-11-21T10:16:00.337Z,6.85
2022-11-21T10:17:00.356Z,6.81
2022-11-21T10:18:00.316Z,6.92
2022-11-21T10:19:00.329Z,6.84
2022-11-21T10:20:00.355Z,6.88
2022-11-21T10:21:00.283Z,6.92
2022-11-21T10:22:00.272Z,6.89
2022-11-21T10:23:00.271Z,6.88
2022-11-21T10:24:00.257Z,6.79
2022-11-21T10:25:00.276Z,6.87
2022-11-21T10:26:00.291Z,6.71
2022-11-21T10:27:00.213Z,6.77
2022-11-21T10:28:00.200Z,6.80
2022-11-21T10:29:00.222Z,6.95
2022-11-21T10:30:00.202Z,6.95
2022-11-21T10:31:00.198Z,7.03
2022-11-21T10:32:00.203Z,6.97
2022-11-21T10:33:00.948Z,7.05
2022-11-21T10:34:00.175Z,7.17
2022-11-21T10:35:00.130Z,7.17
2022-11-21T10:36:00.144Z,7.16
2022-11-21T10:37:00.127Z,7.31
2022-11-21T10:38:00.092Z,7.24
2022-11-21T10:39:00.232Z,7.37
2022-11-21T10:40:00.087Z,7.28
2022-11-21T10:41:00.067Z,7.40
2022-11-21T10:42:00.093Z,7.39
2022-11-21T10:43:00.048Z,7.37
2022-11-21T10:44:00.018Z,7.31
2022-11-21T10:45:00.034Z,7.32
2022-11-21T10:46:00.039Z,7.30
2022-11-21T10:47:00.007Z,7.30
2022-11-21T10:48:02.651Z,7.27
2022-11-21T10:49:01.120Z,7.31
2022-11-21T10:49:59.950Z,7.42
2022-11-21T10:50:59.953Z,7.34
2022-11-21T10:51:59.968Z,7.42
2022-11-21T10:52:59.950Z,7.39
2022-11-21T10:54:04.634Z,7.48
2022-11-21T10:55:00.942Z,7.45
2022-11-21T10:55:59.890Z,7.43
2022-11-21T10:56:59.895Z,7.49
2022-11-21T10:57:59.892Z,7.67
2022-11-21T10:58:59.959Z,7.58
2022-11-21T10:59:59.845Z,7.69
2022-11-21T11:00:59.878Z,7.61
2022-11-21T11:01:59.845Z,7.68
2022-11-21T11:02:59.806Z,7.58
2022-11-21T11:04:20.766Z,7.60
2022-11-21T11:05:00.801Z,7.63
2022-11-21T11:05:59.774Z,7.57
2022-11-21T11:07:00.100Z,7.58
2022-11-21T11:07:59.758Z,7.58
2022-11-21T11:08:59.744Z,7.49
2022-11-21T11:09:59.767Z,7.55
2022-11-21T11:10:59.715Z,7.57
2022-11-21T11:11:59.702Z,7.64
2022-11-21T11:13:02.028Z,7.58
2022-11-21T11:14:00.705Z,7.72
2022-11-21T11:14:59.684Z,7.79
2022-11-21T11:15:59.697Z,7.75
2022-11-21T11:16:59.659Z,7.80
2022-11-21T11:18:02.725Z,7.82
2022-11-21T11:19:00.674Z,7.82
2022-11-21T11:19:59.661Z,7.86
2022-11-21T11:20:59.646Z,7.86
2022-11-21T11:21:59.636Z,7.89
2022-11-21T11:22:59.590Z,8.00
2022-11-21T11:23:59.593Z,7.97
2022-11-21T11:25:01.122Z,8.00
2022-11-21T11:25:59.600Z,8.04
2022-11-21T11:26:59.563Z,8.12
2022-11-21T11:27:59.578Z,8.15
2022-11-21T11:28:59.536Z,8.23
2022-11-21T11:29:59.508Z,8.28
2022-11-21T11:30:59.510Z,8.33
2022-11-21T11:31:59.533Z,8.25
2022-11-21T11:32:59.531Z,8.29
2022-11-21T11:33:59.459Z,8.26
2022-11-21T11:34:59.444Z,8.18
2022-11-21T11:35:59.460Z,8.08
2022-11-21T11:36:59.447Z,8.10
2022-11-21T11:37:59.441Z,8.11
2022-11-21T11:38:59.450Z,8.18
2022-11-21T11:39:59.385Z,8.16
2022-11-21T11:40:59.382Z,8.25
2022-11-21T11:41:59.406Z,8.26
2022-11-21T11:42:59.364Z,8.28
2022-11-21T11:43:59.357Z,8.26
2022-11-21T11:44:59.346Z,8.30
2022-11-21T11:45:59.322Z,8.22
2022-11-21T11:46:59.394Z,8.11
2022-11-21T11:47:59.337Z,8.04
2022-11-21T11:49:25.725Z,7.97
2022-11-21T11:50:00.273Z,7.92
2022-11-21T11:50:59.272Z,7.98
2022-11-21T11:51:59.265Z,7.83
2022-11-21T11:52:59.285Z,7.79
2022-11-21T11:54:01.227Z,7.71
2022-11-21T11:54:59.240Z,7.72
2022-11-21T11:55:59.204Z,7.72
2022-11-21T11:56:59.213Z,7.67
2022-11-21T11:57:59.189Z,7.77
2022-11-21T11:58:59.196Z,7.72
2022-11-21T11:59:59.191Z,7.79
2022-11-21T12:00:59.181Z,7.83
2022-11-21T12:01:59.213Z,7.89
2022-11-21T12:02:59.142Z,7.92
2022-11-21T12:03:59.143Z,7.93
2022-11-21T12:04:59.113Z,7.95
2022-11-21T12:05:59.122Z,8.00
2022-11-21T12:08:40.850Z,8.01
2022-11-21T12:09:00.226Z,8.00
2022-11-21T12:09:59.066Z,8.04
2022-11-21T12:10:59.049Z,8.08
2022-11-21T12:11:59.057Z,8.07
2022-11-21T12:12:59.016Z,8.16
2022-11-21T12:13:59.012Z,8.07
2022-11-21T12:14:59.007Z,8.08
2022-11-21T12:16:05.847Z,8.15
2022-11-21T12:17:00.019Z,7.97
2022-11-21T12:17:58.991Z,8.07
2022-11-21T12:18:58.948Z,8.16
2022-11-21T12:19:58.949Z,8.12
2022-11-21T12:20:59.552Z,8.07
2022-11-21T12:21:58.922Z,8.05
2022-11-21T12:22:58.935Z,8.07
2022-11-21T12:23:58.936Z,8.00
2022-11-21T12:24:58.903Z,8.07
2022-11-21T12:25:58.883Z,8.15
2022-11-21T12:26:58.860Z,7.98
2022-11-21T12:27:58.895Z,7.93
2022-11-21T12:28:58.879Z,7.98
2022-11-21T12:29:58.825Z,7.80
2022-11-21T12:31:00.144Z,7.89
2022-11-21T12:31:58.833Z,7.85
2022-11-21T12:33:02.253Z,7.79
2022-11-21T12:33:59.808Z,7.80
2022-11-21T12:34:58.810Z,7.82
2022-11-21T12:36:16.315Z,7.75
2022-11-21T12:36:59.767Z,7.83
2022-11-21T12:37:58.733Z,7.80
2022-11-21T12:38:58.764Z,7.83
2022-11-21T12:39:58.739Z,7.85
2022-11-21T12:40:59.148Z,7.82
2022-11-21T12:41:58.688Z,7.89
2022-11-21T12:42:58.679Z,7.89
2022-11-21T12:43:58.699Z,7.85
2022-11-21T12:44:58.671Z,7.86
2022-11-21T12:45:58.675Z,7.89
2022-11-21T12:46:58.636Z,7.79
2022-11-21T12:47:58.794Z,7.89
2022-11-21T12:48:58.661Z,7.72
2022-11-21T12:49:58.607Z,7.77
2022-11-21T12:50:58.910Z,7.77
2022-11-21T12:51:58.583Z,7.83
2022-11-21T12:52:58.564Z,7.77
2022-11-21T12:53:58.553Z,7.74
2022-11-21T12:54:58.571Z,7.69
2022-11-21T12:55:58.651Z,7.72
2022-11-21T12:56:58.552Z,7.67
2022-11-21T12:57:58.506Z,7.71
2022-11-21T12:58:58.512Z,7.82
2022-11-21T12:59:58.496Z,7.80
2022-11-21T13:00:59.077Z,7.77
2022-11-21T13:01:58.580Z,7.85
2022-11-21T13:02:58.481Z,7.79
2022-11-21T13:03:58.440Z,7.68
2022-11-21T13:04:58.465Z,7.72
2022-11-21T13:05:58.440Z,7.75
2022-11-21T13:06:58.431Z,7.64
2022-11-21T13:07:58.443Z,7.61
2022-11-21T13:08:58.382Z,7.60
2022-11-21T13:09:58.372Z,7.57
2022-11-21T13:10:58.494Z,7.60
2022-11-21T13:11:58.353Z,7.60
2022-11-21T13:12:58.388Z,7.49
2022-11-21T13:13:58.354Z,7.50
2022-11-21T13:14:58.374Z,7.50
2022-11-21T13:15:58.325Z,7.50
2022-11-21T13:16:58.308Z,7.49
2022-11-21T13:17:58.390Z,7.43
2022-11-21T13:18:58.295Z,7.57